createdAt,value
2023-05-19T00:00:54.752Z,97632.83
2023-05-19T00:03:27.720Z,97634.85
2023-05-19T00:05:59.507Z,97631.94
2023-05-19T00:08:33.588Z,97629.42
2023-05-19T00:11:03.380Z,97628.61
2023-05-19T00:13:35.007Z,97633.14
2023-05-19T00:16:07.999Z,97631.65
2023-05-19T00:18:42.216Z,97631.11
2023-05-19T00:21:13.766Z,97628.04
2023-05-19T00:23:45.173Z,97632.81
2023-05-19T00:26:17.400Z,97637.69
2023-05-19T00:28:56.758Z,97632.46
2023-05-19T00:31:29.642Z,97642.46
2023-05-19T00:34:01.056Z,97643.33
2023-05-19T00:36:33.206Z,97648.45
2023-05-19T00:39:03.283Z,97648.01
2023-05-19T00:41:34.382Z,97646.77
2023-05-19T00:44:04.820Z,97645.64
2023-05-19T00:46:39.186Z,97648.06
2023-05-19T00:49:10.772Z,97647.06
2023-05-19T00:51:42.301Z,97646.55
2023-05-19T00:54:12.822Z,97648.07
2023-05-19T00:56:45.346Z,97648.40
2023-05-19T00:59:18.712Z,97649.74
2023-05-19T01:01:52.381Z,97653.02
2023-05-19T01:04:26.362Z,97655.36
2023-05-19T01:06:58.303Z,97659.94
2023-05-19T01:09:29.669Z,97661.92
2023-05-19T01:12:02.639Z,97665.84
2023-05-19T01:14:33.946Z,97665.61
2023-05-19T01:17:17.066Z,97666.94
2023-05-19T01:19:58.576Z,97666.70
2023-05-19T01:22:44.536Z,97671.77
2023-05-19T01:25:27.499Z,97669.23
2023-05-19T01:28:18.770Z,97670.38
2023-05-19T01:30:57.867Z,97671.29
2023-05-19T01:33:32.962Z,97678.67
2023-05-19T01:36:10.022Z,97682.09
2023-05-19T01:38:48.651Z,97678.25
2023-05-19T01:41:22.757Z,97676.96
2023-05-19T01:43:56.050Z,97672.70
2023-05-19T01:46:29.884Z,97677.69
2023-05-19T01:49:05.637Z,97683.19
2023-05-19T01:51:42.129Z,97682.90
2023-05-19T01:54:19.125Z,97684.69
2023-05-19T01:57:31.173Z,97681.25
2023-05-19T02:00:06.448Z,97688.26
2023-05-19T02:02:56.385Z,97684.42
2023-05-19T02:05:53.684Z,97687.35
2023-05-19T02:08:43.445Z,97689.83
2023-05-19T02:11:42.207Z,97697.36
2023-05-19T02:14:22.919Z,97700.00
2023-05-19T02:16:55.382Z,97699.98
2023-05-19T02:19:34.341Z,97700.04
2023-05-19T02:22:05.451Z,97700.36
2023-05-19T02:24:39.194Z,97701.20
2023-05-19T02:27:11.128Z,97707.35
2023-05-19T02:29:50.154Z,97707.38
2023-05-19T02:32:22.349Z,97708.70
2023-05-19T02:34:53.846Z,97711.13
2023-05-19T02:37:30.786Z,97712.14
2023-05-19T02:40:03.632Z,97712.86
2023-05-19T02:42:34.248Z,97711.82
2023-05-19T02:45:05.165Z,97711.83
2023-05-19T02:47:37.021Z,97718.70
2023-05-19T02:50:08.772Z,97721.57
2023-05-19T02:52:39.475Z,97722.88
2023-05-19T02:55:10.078Z,97718.03
2023-05-19T02:57:39.608Z,97720.42
2023-05-19T03:00:11.549Z,97718.56
2023-05-19T03:02:42.376Z,97713.06
2023-05-19T03:05:15.136Z,97715.45
2023-05-19T03:07:46.506Z,97717.30
2023-05-19T03:10:18.214Z,97721.08
2023-05-19T03:12:48.718Z,97723.23
2023-05-19T03:15:20.881Z,97720.90
2023-05-19T03:17:55.438Z,97725.69
2023-05-19T03:20:27.938Z,97727.02
2023-05-19T03:22:59.264Z,97723.77
2023-05-19T03:25:30.733Z,97726.38
2023-05-19T03:28:00.897Z,97727.95
2023-05-19T03:30:31.020Z,97730.27
2023-05-19T03:33:08.609Z,97735.95
2023-05-19T03:35:40.356Z,97736.70
2023-05-19T03:38:10.280Z,97740.85
2023-05-19T03:40:42.031Z,97743.16
2023-05-19T03:43:15.151Z,97746.73
2023-05-19T03:45:51.613Z,97747.39
2023-05-19T03:48:52.609Z,97745.19
2023-05-19T03:51:32.357Z,97744.02
2023-05-19T03:54:11.706Z,97743.61
2023-05-19T03:56:44.037Z,97747.04
2023-05-19T03:59:13.805Z,97753.26
2023-05-19T04:01:44.727Z,97753.73
2023-05-19T04:04:13.624Z,97754.92
2023-05-19T04:06:43.228Z,97755.87
2023-05-19T04:09:14.150Z,97767.00
2023-05-19T04:11:43.991Z,97770.64
2023-05-19T04:14:14.406Z,97779.52
2023-05-19T04:16:45.987Z,97784.54
2023-05-19T04:19:15.332Z,97786.00
2023-05-19T04:21:44.282Z,97781.86
2023-05-19T04:24:13.981Z,97778.27
2023-05-19T04:26:46.525Z,97768.65
2023-05-19T04:29:18.670Z,97763.05
2023-05-19T04:31:48.291Z,97763.77
2023-05-19T04:34:20.996Z,97766.09
2023-05-19T04:36:53.221Z,97764.52
2023-05-19T04:39:23.368Z,97757.92
2023-05-19T04:41:54.618Z,97756.63
2023-05-19T04:44:24.243Z,97763.03
2023-05-19T04:46:54.901Z,97767.14
2023-05-19T04:49:25.735Z,97769.27
2023-05-19T04:51:56.825Z,97773.95
2023-05-19T04:54:28.895Z,97779.27
2023-05-19T04:56:58.106Z,97779.45
2023-05-19T04:59:28.120Z,97781.33
2023-05-19T05:01:58.684Z,97781.97
2023-05-19T05:04:29.380Z,97780.80
2023-05-19T05:06:59.897Z,97785.50
2023-05-19T05:09:31.047Z,97791.23
2023-05-19T05:12:01.541Z,97794.97
2023-05-19T05:14:31.523Z,97793.64
2023-05-19T05:17:01.977Z,97789.08
2023-05-19T05:19:32.138Z,97791.52
2023-05-19T05:22:02.287Z,97795.94
2023-05-19T05:24:33.710Z,97793.41
2023-05-19T05:27:04.893Z,97795.67
2023-05-19T05:29:35.781Z,97794.08
2023-05-19T05:32:06.893Z,97800.17
2023-05-19T05:34:38.650Z,97800.92
2023-05-19T05:37:08.829Z,97797.59
2023-05-19T05:39:38.127Z,97799.38
2023-05-19T05:42:09.662Z,97797.16
2023-05-19T05:44:39.380Z,97798.94
2023-05-19T05:47:09.254Z,97803.32
2023-05-19T05:49:39.857Z,97805.50
2023-05-19T05:52:11.424Z,97807.61
2023-05-19T05:54:45.374Z,97809.41
2023-05-19T05:57:15.796Z,97810.48
2023-05-19T05:59:47.426Z,97810.41
2023-05-19T06:02:18.986Z,97810.50
2023-05-19T06:04:48.490Z,97814.36
2023-05-19T06:07:17.300Z,97814.98
2023-05-19T06:09:46.794Z,97817.98
2023-05-19T06:12:16.853Z,97818.00
2023-05-19T06:14:49.434Z,97812.52
2023-05-19T06:17:29.184Z,97811.39
2023-05-19T06:19:59.879Z,97815.31
2023-05-19T06:22:29.081Z,97818.14
2023-05-19T06:24:59.429Z,97814.42
2023-05-19T06:27:28.508Z,97817.60
2023-05-19T06:29:57.900Z,97821.08
2023-05-19T06:32:27.336Z,97824.70
2023-05-19T06:34:56.708Z,97828.91
2023-05-19T06:37:27.129Z,97827.89
2023-05-19T06:39:57.148Z,97835.70
2023-05-19T06:42:27.843Z,97838.58
2023-05-19T06:45:08.869Z,97832.99
2023-05-19T06:47:38.479Z,97829.29
2023-05-19T06:50:10.017Z,97830.05
2023-05-19T06:52:40.233Z,97830.63
2023-05-19T06:55:10.088Z,97829.45
2023-05-19T06:57:40.798Z,97825.96
2023-05-19T07:00:13.949Z,97829.84
2023-05-19T07:02:46.777Z,97834.18
2023-05-19T07:05:18.217Z,97830.00
2023-05-19T07:07:52.361Z,97832.55
2023-05-19T07:10:24.169Z,97832.06
2023-05-19T07:12:54.307Z,97835.58
2023-05-19T07:15:25.756Z,97837.20
2023-05-19T07:17:56.018Z,97835.61
2023-05-19T07:20:26.568Z,97834.14
2023-05-19T07:22:56.707Z,97831.77
2023-05-19T07:25:27.558Z,97836.61
2023-05-19T07:27:57.692Z,97839.98
2023-05-19T07:30:28.864Z,97839.91
2023-05-19T07:32:58.593Z,97837.60
2023-05-19T07:35:27.610Z,97840.12
2023-05-19T07:37:56.614Z,97846.29
2023-05-19T07:40:25.806Z,97844.23
2023-05-19T07:42:54.892Z,97843.90
2023-05-19T07:45:24.199Z,97841.23
2023-05-19T07:47:54.692Z,97840.08
2023-05-19T07:50:23.714Z,97839.09
2023-05-19T07:52:52.813Z,97839.80
2023-05-19T07:55:23.572Z,97841.31
2023-05-19T07:57:52.650Z,97840.05
2023-05-19T08:00:22.193Z,97838.41
2023-05-19T08:02:51.236Z,97833.76
2023-05-19T08:05:20.557Z,97835.79
2023-05-19T08:07:50.181Z,97834.25
2023-05-19T08:10:19.055Z,97825.44
2023-05-19T08:12:48.967Z,97827.06
2023-05-19T08:15:17.853Z,97830.23
2023-05-19T08:17:47.895Z,97830.01
2023-05-19T08:20:17.108Z,97829.89
2023-05-19T08:22:46.368Z,97832.00
2023-05-19T08:25:15.785Z,97831.23
2023-05-19T08:27:44.876Z,97824.61
2023-05-19T08:30:14.570Z,97823.89
2023-05-19T08:32:43.692Z,97816.38
2023-05-19T08:35:13.254Z,97814.42
2023-05-19T08:37:42.570Z,97812.16
2023-05-19T08:40:17.998Z,97813.81
2023-05-19T08:42:47.850Z,97814.96
2023-05-19T08:45:17.565Z,97816.80
2023-05-19T08:47:48.411Z,97813.55
2023-05-19T08:50:25.248Z,97811.69
2023-05-19T08:53:02.794Z,97811.71
2023-05-19T08:55:37.185Z,97810.31
2023-05-19T08:58:07.600Z,97809.67
2023-05-19T09:00:37.437Z,97808.50
2023-05-19T09:05:41.734Z,97808.30
2023-05-19T09:08:10.731Z,97807.52
2023-05-19T09:10:40.026Z,97808.11
2023-05-19T09:13:10.290Z,97805.92
2023-05-19T09:15:41.981Z,97804.50
2023-05-19T09:18:13.468Z,97802.91
2023-05-19T09:20:45.352Z,97800.15
2023-05-19T09:23:16.491Z,97794.43
2023-05-19T09:25:53.635Z,97791.27
2023-05-19T09:28:26.053Z,97792.77
2023-05-19T09:31:09.440Z,97786.09
2023-05-19T09:33:42.144Z,97781.67
2023-05-19T09:36:13.625Z,97780.06
2023-05-19T09:38:43.099Z,97778.48
2023-05-19T09:41:15.457Z,97777.32
2023-05-19T09:43:54.592Z,97776.71
2023-05-19T09:46:28.891Z,97774.77
2023-05-19T09:49:01.783Z,97770.16
2023-05-19T09:51:32.574Z,97769.10
2023-05-19T09:54:01.516Z,97769.98
2023-05-19T09:56:37.051Z,97763.76
2023-05-19T09:59:07.570Z,97760.10
2023-05-19T10:01:40.905Z,97752.85
2023-05-19T10:04:10.495Z,97746.73
2023-05-19T10:06:39.989Z,97747.17
2023-05-19T10:09:09.084Z,97745.23
2023-05-19T10:11:38.288Z,97748.25
2023-05-19T10:14:08.820Z,97749.30
2023-05-19T10:16:39.067Z,97755.64
2023-05-19T10:19:09.958Z,97754.16
2023-05-19T10:21:38.759Z,97751.15
2023-05-19T10:24:07.657Z,97747.11
2023-05-19T10:26:37.458Z,97749.13
2023-05-19T10:29:06.858Z,97745.48
2023-05-19T10:31:37.107Z,97740.05
2023-05-19T10:34:13.568Z,97736.52
2023-05-19T10:36:50.028Z,97731.14
2023-05-19T10:39:33.668Z,97727.40
2023-05-19T10:42:08.702Z,97730.35
2023-05-19T10:44:47.532Z,97731.77
2023-05-19T10:47:23.952Z,97736.41
2023-05-19T10:49:54.267Z,97733.38
2023-05-19T10:52:29.365Z,97733.52
2023-05-19T10:54:58.705Z,97730.23
2023-05-19T10:57:33.522Z,97728.39
2023-05-19T11:00:26.953Z,97726.85
2023-05-19T11:03:24.515Z,97728.21
2023-05-19T11:05:53.603Z,97729.09
2023-05-19T11:08:33.878Z,97733.79
2023-05-19T11:11:18.516Z,97734.98
2023-05-19T11:13:57.936Z,97744.45
2023-05-19T11:16:32.913Z,97754.02
2023-05-19T11:19:02.461Z,97765.66
2023-05-19T11:21:49.534Z,97788.20
2023-05-19T11:24:43.197Z,97803.53
2023-05-19T11:27:18.516Z,97819.81
2023-05-19T11:29:51.974Z,97810.02
2023-05-19T11:32:22.932Z,97800.48
2023-05-19T11:34:53.424Z,97792.73
2023-05-19T11:37:22.277Z,97788.59
2023-05-19T11:39:53.410Z,97787.56
2023-05-19T11:42:22.419Z,97788.42
2023-05-19T11:44:56.130Z,97776.88
2023-05-19T11:47:25.030Z,97753.58
2023-05-19T11:49:59.227Z,97741.27
2023-05-19T11:52:28.117Z,97737.30
2023-05-19T11:55:02.246Z,97733.04
2023-05-19T11:57:31.657Z,97726.78
2023-05-19T12:00:05.118Z,97726.48
2023-05-19T12:02:34.220Z,97728.48
2023-05-19T12:05:04.278Z,97722.06
2023-05-19T12:07:33.123Z,97717.52
2023-05-19T12:10:02.225Z,97713.55
2023-05-19T12:12:31.518Z,97710.21
2023-05-19T12:15:03.899Z,97708.04
2023-05-19T12:17:33.342Z,97707.87
2023-05-19T12:20:03.823Z,97701.97
2023-05-19T12:22:32.905Z,97702.84
2023-05-19T12:25:03.122Z,97701.29
2023-05-19T12:27:35.413Z,97693.66
2023-05-19T12:30:06.286Z,97694.75
2023-05-19T12:32:36.735Z,97694.66
2023-05-19T12:35:06.520Z,97692.39
2023-05-19T12:37:37.350Z,97699.05
2023-05-19T12:40:07.591Z,97707.13
2023-05-19T12:42:38.167Z,97707.11
2023-05-19T12:45:07.639Z,97701.17
2023-05-19T12:47:37.257Z,97705.46
2023-05-19T12:50:10.953Z,97702.20
2023-05-19T12:52:53.959Z,97699.48
2023-05-19T12:55:23.460Z,97700.60
2023-05-19T12:57:58.569Z,97700.28
2023-05-19T13:00:32.811Z,97702.24
2023-05-19T13:03:06.688Z,97705.21
2023-05-19T13:05:40.579Z,97707.81
2023-05-19T13:08:21.936Z,97704.95
2023-05-19T13:10:51.375Z,97714.23
2023-05-19T13:13:20.365Z,97713.75
2023-05-19T13:15:50.178Z,97706.20
2023-05-19T13:18:21.476Z,97696.55
2023-05-19T13:20:51.642Z,97692.01
2023-05-19T13:23:20.838Z,97694.13
2023-05-19T13:25:51.102Z,97694.83
2023-05-19T13:28:20.054Z,97696.63
2023-05-19T13:30:52.546Z,97701.21
2023-05-19T13:33:22.242Z,97715.10
2023-05-19T13:35:51.645Z,97718.92
2023-05-19T13:38:21.251Z,97696.92
2023-05-19T13:40:50.350Z,97673.70
2023-05-19T13:43:19.326Z,97662.64
2023-05-19T13:45:49.368Z,97661.15
2023-05-19T13:48:19.416Z,97658.69
2023-05-19T13:50:49.187Z,97662.60
2023-05-19T13:53:18.077Z,97666.68
2023-05-19T13:55:49.942Z,97673.00
2023-05-19T13:58:19.228Z,97675.80
2023-05-19T14:00:48.218Z,97678.77
2023-05-19T14:03:20.020Z,97678.39
2023-05-19T14:05:49.345Z,97670.22
2023-05-19T14:08:19.203Z,97663.65
2023-05-19T14:10:51.464Z,97661.87
2023-05-19T14:13:32.639Z,97660.66
2023-05-19T14:16:04.554Z,97658.76
2023-05-19T14:18:33.606Z,97657.71
2023-05-19T14:21:02.800Z,97659.60
2023-05-19T14:23:32.967Z,97657.41
2023-05-19T14:26:01.909Z,97659.27
2023-05-19T14:28:30.796Z,97663.58
2023-05-19T14:31:00.333Z,97664.93
2023-05-19T14:33:34.865Z,97668.35
2023-05-19T14:36:05.972Z,97668.66
2023-05-19T14:38:34.960Z,97669.20
2023-05-19T14:41:04.259Z,97674.48
2023-05-19T14:43:33.151Z,97675.50
2023-05-19T14:46:03.083Z,97678.19
2023-05-19T14:48:32.970Z,97682.11
2023-05-19T14:51:02.273Z,97686.00
2023-05-19T14:53:31.070Z,97686.99
2023-05-19T14:55:59.952Z,97686.12
2023-05-19T14:58:29.505Z,97687.43
2023-05-19T15:01:00.079Z,97685.58
2023-05-19T15:03:29.209Z,97687.07
2023-05-19T15:05:59.406Z,97687.02
2023-05-19T15:08:28.402Z,97685.67
2023-05-19T15:10:57.411Z,97685.02
2023-05-19T15:13:26.791Z,97688.77
2023-05-19T15:16:08.376Z,97687.92
2023-05-19T15:18:44.499Z,97690.05
2023-05-19T15:21:13.826Z,97686.35
2023-05-19T15:23:42.638Z,97688.41
2023-05-19T15:26:11.429Z,97688.30
2023-05-19T15:28:40.320Z,97686.02
2023-05-19T15:31:09.050Z,97682.61
2023-05-19T15:33:37.896Z,97681.84
2023-05-19T15:36:07.406Z,97678.77
2023-05-19T15:38:37.749Z,97674.95
2023-05-19T15:41:08.539Z,97674.44
2023-05-19T15:43:37.666Z,97674.59
2023-05-19T15:46:06.911Z,97673.58
2023-05-19T15:48:35.961Z,97670.80
2023-05-19T15:51:05.158Z,97668.44
2023-05-19T15:53:33.926Z,97672.35
2023-05-19T15:56:04.712Z,97672.38
2023-05-19T15:58:34.268Z,97673.05
2023-05-19T16:01:03.540Z,97679.77
2023-05-19T16:03:32.369Z,97681.12
2023-05-19T16:06:01.994Z,97682.34
2023-05-19T16:08:30.971Z,97681.14
2023-05-19T16:10:59.962Z,97682.15
2023-05-19T16:13:28.740Z,97685.96
2023-05-19T16:15:57.579Z,97688.00
2023-05-19T16:18:26.627Z,97690.02
2023-05-19T16:20:56.865Z,97691.66
2023-05-19T16:23:27.801Z,97698.50
2023-05-19T16:25:57.903Z,97702.06
2023-05-19T16:28:28.580Z,97705.98
2023-05-19T16:31:00.233Z,97706.48
2023-05-19T16:33:29.177Z,97711.84
2023-05-19T16:36:00.185Z,97710.55
2023-05-19T16:38:29.734Z,97708.58
2023-05-19T16:40:58.311Z,97706.73
2023-05-19T16:43:27.204Z,97701.67
2023-05-19T16:45:56.528Z,97709.54
2023-05-19T16:48:25.195Z,97719.20
2023-05-19T16:50:53.978Z,97725.04
2023-05-19T16:53:23.493Z,97731.27
2023-05-19T16:55:52.776Z,97736.52
2023-05-19T16:58:21.575Z,97735.92
2023-05-19T17:00:54.395Z,97736.20
2023-05-19T17:03:23.982Z,97738.61
2023-05-19T17:05:53.255Z,97744.33
2023-05-19T17:08:22.141Z,97743.49
2023-05-19T17:10:51.655Z,97741.52
2023-05-19T17:13:20.447Z,97739.02
2023-05-19T17:15:52.913Z,97737.84
2023-05-19T17:18:21.793Z,97735.02
2023-05-19T17:20:50.997Z,97734.34
2023-05-19T17:23:19.987Z,97733.66
2023-05-19T17:25:49.543Z,97731.15
2023-05-19T17:28:18.350Z,97731.69
2023-05-19T17:30:47.301Z,97734.52
2023-05-19T17:33:16.881Z,97735.73
2023-05-19T17:35:47.325Z,97731.73
2023-05-19T17:38:16.402Z,97735.60
2023-05-19T17:40:45.094Z,97737.47
2023-05-19T17:43:13.982Z,97740.86
2023-05-19T17:45:42.979Z,97740.87
2023-05-19T17:48:11.993Z,97745.72
2023-05-19T17:50:40.656Z,97746.47
2023-05-19T17:53:10.559Z,97748.48
2023-05-19T17:55:40.170Z,97744.41
2023-05-19T17:58:09.566Z,97742.30
2023-05-19T18:00:38.771Z,97748.84
2023-05-19T18:03:08.301Z,97746.88
2023-05-19T18:05:38.289Z,97750.16
2023-05-19T18:08:09.672Z,97752.44
2023-05-19T18:10:41.193Z,97751.98
2023-05-19T18:13:14.114Z,97753.55
2023-05-19T18:15:43.172Z,97754.20
2023-05-19T18:18:12.606Z,97759.42
2023-05-19T18:20:45.048Z,97765.48
2023-05-19T18:23:13.737Z,97766.84
2023-05-19T18:25:50.503Z,97773.22
2023-05-19T18:28:19.516Z,97775.08
2023-05-19T18:30:48.394Z,97777.65
2023-05-19T18:33:17.287Z,97784.13
2023-05-19T18:35:46.782Z,97786.64
2023-05-19T18:38:15.470Z,97787.95
2023-05-19T18:40:45.794Z,97791.52
2023-05-19T18:43:14.492Z,97791.52
2023-05-19T18:45:43.738Z,97795.77
2023-05-19T18:48:12.495Z,97798.15
2023-05-19T18:50:44.020Z,97797.86
2023-05-19T18:53:12.809Z,97800.59
2023-05-19T18:55:42.011Z,97804.34
2023-05-19T18:58:10.996Z,97804.40
2023-05-19T19:00:39.686Z,97808.61
2023-05-19T19:03:10.678Z,97812.36
2023-05-19T19:05:40.337Z,97811.98
2023-05-19T19:08:09.120Z,97806.35
2023-05-19T19:10:40.975Z,97809.92
2023-05-19T19:13:09.877Z,97814.70
2023-05-19T19:15:40.028Z,97815.64
2023-05-19T19:18:09.418Z,97813.22
2023-05-19T19:20:38.492Z,97818.05
2023-05-19T19:23:07.906Z,97819.89
2023-05-19T19:25:36.778Z,97820.02
2023-05-19T19:28:05.671Z,97821.70
2023-05-19T19:30:34.593Z,97825.88
2023-05-19T19:33:04.814Z,97828.24
2023-05-19T19:35:36.333Z,97830.58
2023-05-19T19:38:05.252Z,97826.83
2023-05-19T19:40:34.121Z,97827.80
2023-05-19T19:43:03.639Z,97827.36
2023-05-19T19:45:35.002Z,97830.98
2023-05-19T19:48:04.263Z,97831.27
2023-05-19T19:50:34.822Z,97831.44
2023-05-19T19:53:03.989Z,97829.89
2023-05-19T19:55:33.199Z,97828.10
2023-05-19T19:58:01.978Z,97822.42
2023-05-19T20:00:31.285Z,97827.73
2023-05-19T20:05:32.175Z,97833.99
2023-05-19T20:08:01.110Z,97836.25
2023-05-19T20:10:30.011Z,97835.19
2023-05-19T20:12:59.837Z,97836.64
2023-05-19T20:15:28.615Z,97840.73
2023-05-19T20:17:57.859Z,97840.58
2023-05-19T20:20:27.008Z,97842.77
2023-05-19T20:22:55.602Z,97842.95
2023-05-19T20:25:25.201Z,97846.98
2023-05-19T20:27:54.201Z,97847.99
2023-05-19T20:30:23.189Z,97849.94
2023-05-19T20:32:52.108Z,97850.74
2023-05-19T20:35:21.386Z,97848.41
2023-05-19T20:37:50.387Z,97844.53
2023-05-19T20:40:19.178Z,97841.74
2023-05-19T20:42:48.389Z,97841.15
2023-05-19T20:45:18.786Z,97833.77
2023-05-19T20:47:47.687Z,97834.68
2023-05-19T20:50:16.462Z,97835.77
2023-05-19T20:52:45.380Z,97838.56
2023-05-19T20:55:14.354Z,97843.66
2023-05-19T20:57:44.873Z,97849.95
2023-05-19T21:00:14.557Z,97850.67
2023-05-19T21:02:43.536Z,97855.22
2023-05-19T21:05:12.813Z,97854.45
2023-05-19T21:07:42.281Z,97858.94
2023-05-19T21:10:14.148Z,97858.42
2023-05-19T21:12:42.935Z,97863.72
2023-05-19T21:15:12.191Z,97859.70
2023-05-19T21:17:40.936Z,97861.36
2023-05-19T21:20:10.576Z,97859.76
2023-05-19T21:22:41.258Z,97861.07
2023-05-19T21:25:10.726Z,97864.39
2023-05-19T21:27:41.021Z,97866.37
2023-05-19T21:30:10.900Z,97867.94
2023-05-19T21:32:39.875Z,97868.77
2023-05-19T21:35:09.396Z,97868.34
2023-05-19T21:37:38.624Z,97867.64
2023-05-19T21:40:08.489Z,97866.72
2023-05-19T21:42:37.420Z,97872.63
2023-05-19T21:45:07.394Z,97872.02
2023-05-19T21:47:36.451Z,97874.98
2023-05-19T21:50:05.844Z,97875.36
2023-05-19T21:52:36.641Z,97877.13
2023-05-19T21:55:06.453Z,97883.29
2023-05-19T21:57:35.254Z,97880.59
2023-05-19T22:00:06.905Z,97882.83
2023-05-19T22:02:41.376Z,97883.73
2023-05-19T22:05:11.345Z,97878.94
2023-05-19T22:07:40.436Z,97877.94
2023-05-19T22:10:10.403Z,97881.33
2023-05-19T22:12:39.144Z,97885.55
2023-05-19T22:15:08.761Z,97884.19
2023-05-19T22:17:37.555Z,97886.48
2023-05-19T22:20:08.429Z,97886.70
2023-05-19T22:22:37.272Z,97884.11
2023-05-19T22:25:07.653Z,97888.73
2023-05-19T22:27:37.499Z,97883.34
2023-05-19T22:30:07.951Z,97889.92
2023-05-19T22:32:37.299Z,97891.31
2023-05-19T22:35:07.456Z,97898.84
2023-05-19T22:37:37.286Z,97901.18
2023-05-19T22:40:07.590Z,97896.20
2023-05-19T22:42:37.300Z,97891.76
2023-05-19T22:45:07.313Z,97894.95
2023-05-19T22:47:37.539Z,97891.48
2023-05-19T22:50:10.445Z,97884.86
2023-05-19T22:52:39.506Z,97886.06
2023-05-19T22:55:09.482Z,97882.44
2023-05-19T22:57:39.880Z,97880.39
2023-05-19T23:00:10.478Z,97886.95
2023-05-19T23:02:41.721Z,97885.56
2023-05-19T23:05:12.059Z,97882.73
2023-05-19T23:07:42.134Z,97881.45
2023-05-19T23:10:13.211Z,97879.55
2023-05-19T23:12:43.542Z,97880.15
2023-05-19T23:15:13.675Z,97880.66
2023-05-19T23:17:45.229Z,97880.66
2023-05-19T23:20:15.354Z,97877.14
2023-05-19T23:22:44.949Z,97875.35
2023-05-19T23:25:14.256Z,97876.57
2023-05-19T23:27:44.423Z,97877.46
2023-05-19T23:30:13.850Z,97880.26
2023-05-19T23:32:42.910Z,97877.48
2023-05-19T23:35:18.067Z,97873.56
2023-05-19T23:37:48.592Z,97874.90
2023-05-19T23:40:19.642Z,97871.03
2023-05-19T23:42:49.953Z,97865.71
2023-05-19T23:45:19.777Z,97866.34
2023-05-19T23:47:52.759Z,97867.20
2023-05-19T23:50:23.408Z,97868.42
2023-05-19T23:52:53.426Z,97866.49
2023-05-19T23:55:24.191Z,97863.13
2023-05-19T23:57:54.094Z,97860.75
